createdAt,value
2019-01-16T00:00:28.194Z,7.40
2019-01-16T00:03:30.802Z,7.40
2019-01-16T00:06:31.878Z,7.40
2019-01-16T00:09:20.937Z,7.40
2019-01-16T00:12:11.161Z,7.40
2019-01-16T00:15:14.696Z,7.40
2019-01-16T00:18:17.247Z,7.40
2019-01-16T00:21:07.016Z,7.30
2019-01-16T00:24:08.261Z,7.30
2019-01-16T00:27:09.285Z,7.30
2019-01-16T00:30:04.923Z,7.30
2019-01-16T00:33:02.370Z,7.30
2019-01-16T00:36:03.335Z,7.30
2019-01-16T00:39:04.484Z,7.30
2019-01-16T00:41:58.260Z,7.30
2019-01-16T00:44:58.735Z,7.30
2019-01-16T00:48:00.950Z,7.30
2019-01-16T00:51:05.218Z,7.20
2019-01-16T00:54:05.975Z,7.20
2019-01-16T00:57:12.809Z,7.30
2019-01-16T01:00:19.312Z,7.20
2019-01-16T01:03:20.398Z,7.20
2019-01-16T01:06:27.157Z,7.20
2019-01-16T01:09:28.284Z,7.20
2019-01-16T01:12:29.066Z,7.20
2019-01-16T01:15:21.934Z,7.20
2019-01-16T01:18:11.369Z,7.30
2019-01-16T01:21:19.535Z,7.30
2019-01-16T01:27:44.838Z,7.30
2019-01-16T01:30:35.407Z,7.30
2019-01-16T01:33:33.415Z,7.20
2019-01-16T01:36:25.907Z,7.20
2019-01-16T01:39:14.970Z,7.20
2019-01-16T01:42:23.070Z,7.20
2019-01-16T01:45:23.761Z,7.20
2019-01-16T01:48:12.895Z,7.10
2019-01-16T01:51:21.016Z,7.20
2019-01-16T01:54:22.148Z,7.10
2019-01-16T01:57:23.121Z,7.10
2019-01-16T02:00:21.710Z,7.10
2019-01-16T02:03:16.972Z,7.10
2019-01-16T02:06:11.081Z,7.10
2019-01-16T02:09:12.265Z,7.00
2019-01-16T02:12:07.053Z,7.00
2019-01-16T02:15:08.142Z,7.10
2019-01-16T02:18:08.889Z,7.10
2019-01-16T02:21:09.698Z,7.10
2019-01-16T02:24:10.534Z,7.10
2019-01-16T02:27:11.150Z,7.10
2019-01-16T02:30:11.898Z,7.10
2019-01-16T02:33:01.916Z,7.10
2019-01-16T02:36:10.069Z,7.10
2019-01-16T02:39:10.491Z,7.10
2019-01-16T02:42:11.166Z,7.10
2019-01-16T02:45:17.669Z,7.00
2019-01-16T02:48:14.465Z,7.00
2019-01-16T02:51:06.897Z,7.00
2019-01-16T02:53:55.980Z,7.00
2019-01-16T02:57:04.151Z,7.00
2019-01-16T02:59:53.174Z,7.00
2019-01-16T03:03:01.353Z,7.00
2019-01-16T03:06:05.502Z,6.90
2019-01-16T03:09:21.175Z,6.90
2019-01-16T03:12:21.065Z,6.80
2019-01-16T03:15:25.341Z,6.70
2019-01-16T03:18:26.173Z,6.70
2019-01-16T03:21:21.790Z,6.60
2019-01-16T03:24:23.074Z,6.60
2019-01-16T03:27:18.152Z,6.50
2019-01-16T03:30:19.057Z,6.50
2019-01-16T03:33:22.653Z,6.60
2019-01-16T03:36:23.731Z,6.50
2019-01-16T03:39:14.945Z,6.50
2019-01-16T03:42:04.034Z,6.50
2019-01-16T03:44:53.157Z,6.50
2019-01-16T03:47:54.119Z,6.60
2019-01-16T03:50:45.947Z,6.60
2019-01-16T03:53:47.173Z,6.60
2019-01-16T03:56:36.235Z,6.60
2019-01-16T03:59:44.409Z,6.70
2019-01-16T04:02:45.122Z,6.60
2019-01-16T04:05:45.916Z,6.70
2019-01-16T04:08:36.781Z,6.70
2019-01-16T04:11:30.667Z,6.70
2019-01-16T04:14:41.339Z,6.70
2019-01-16T04:17:30.450Z,6.70
2019-01-16T04:20:17.405Z,6.70
2019-01-16T04:23:23.981Z,6.80
2019-01-16T04:26:25.102Z,6.70
2019-01-16T04:29:19.444Z,6.70
2019-01-16T04:32:15.103Z,6.70
2019-01-16T04:35:18.535Z,6.80
2019-01-16T04:38:19.293Z,6.80
2019-01-16T04:41:20.283Z,6.80
2019-01-16T04:44:14.797Z,6.80
2019-01-16T04:47:15.099Z,6.80
2019-01-16T04:50:21.790Z,6.80
2019-01-16T04:53:22.878Z,6.80
2019-01-16T04:56:12.030Z,6.80
2019-01-16T04:59:01.075Z,6.90
2019-01-16T05:02:02.950Z,7.00
2019-01-16T05:04:52.114Z,7.00
2019-01-16T05:08:00.598Z,7.00
2019-01-16T05:10:57.879Z,7.00
2019-01-16T05:13:58.593Z,7.10
2019-01-16T05:16:59.547Z,7.10
2019-01-16T05:20:00.491Z,7.10
2019-01-16T05:23:04.450Z,7.10
2019-01-16T05:26:10.887Z,7.00
2019-01-16T05:29:13.666Z,7.00
2019-01-16T05:32:15.937Z,6.90
2019-01-16T05:35:11.477Z,7.00
2019-01-16T05:38:02.756Z,7.00
2019-01-16T05:40:51.915Z,6.90
2019-01-16T05:43:56.204Z,6.90
2019-01-16T05:46:57.151Z,6.90
2019-01-16T05:49:48.905Z,6.90
2019-01-16T05:52:41.648Z,6.90
2019-01-16T05:55:42.248Z,7.00
2019-01-16T05:58:42.776Z,7.00
2019-01-16T06:01:43.320Z,7.00
2019-01-16T06:04:50.243Z,7.00
2019-01-16T06:07:51.041Z,7.00
2019-01-16T06:10:40.805Z,7.10
2019-01-16T06:13:44.617Z,7.10
2019-01-16T06:16:43.687Z,7.10
2019-01-16T06:19:44.573Z,7.10
2019-01-16T06:22:45.399Z,7.10
2019-01-16T06:25:46.346Z,7.10
2019-01-16T06:28:47.519Z,7.10
2019-01-16T06:31:43.271Z,7.10
2019-01-16T06:34:43.847Z,7.10
2019-01-16T06:37:44.779Z,7.10
2019-01-16T06:40:45.746Z,7.10
2019-01-16T06:43:46.759Z,7.10
2019-01-16T06:46:41.371Z,7.10
2019-01-16T06:49:42.138Z,7.10
2019-01-16T06:52:42.992Z,7.10
2019-01-16T06:55:38.610Z,7.10
2019-01-16T06:58:45.052Z,7.10
2019-01-16T07:01:45.862Z,7.10
2019-01-16T07:04:46.174Z,7.10
2019-01-16T07:07:35.279Z,7.10
2019-01-16T07:10:16.486Z,7.20
2019-01-16T07:13:17.473Z,7.10
2019-01-16T07:16:06.506Z,7.10
2019-01-16T07:18:55.556Z,7.10
2019-01-16T07:21:59.305Z,7.10
2019-01-16T07:25:02.960Z,7.10
2019-01-16T07:27:59.879Z,7.10
2019-01-16T07:31:00.676Z,7.10
2019-01-16T07:33:52.433Z,7.10
2019-01-16T07:36:53.700Z,7.10
2019-01-16T07:39:54.847Z,7.10
2019-01-16T07:42:55.888Z,7.10
2019-01-16T07:45:46.504Z,7.10
2019-01-16T07:48:45.231Z,7.10
2019-01-16T07:51:45.892Z,7.10
2019-01-16T07:54:46.702Z,7.10
2019-01-16T07:57:47.508Z,7.10
2019-01-16T08:00:48.553Z,7.10
2019-01-16T08:03:49.474Z,7.10
2019-01-16T08:06:50.492Z,7.10
2019-01-16T08:09:51.586Z,7.10
2019-01-16T08:12:57.160Z,7.10
2019-01-16T08:15:51.340Z,7.00
2019-01-16T08:18:55.113Z,7.00
2019-01-16T08:21:56.186Z,7.00
2019-01-16T08:24:45.238Z,7.00
2019-01-16T08:27:34.275Z,7.00
2019-01-16T08:30:41.671Z,7.00
2019-01-16T08:33:42.802Z,7.10
2019-01-16T08:36:43.517Z,7.00
2019-01-16T08:39:44.506Z,7.00
2019-01-16T08:42:45.669Z,7.00
2019-01-16T08:45:52.499Z,7.00
2019-01-16T08:48:53.278Z,7.00
2019-01-16T08:51:49.618Z,7.00
2019-01-16T08:54:50.220Z,7.00
2019-01-16T08:57:54.075Z,7.00
2019-01-16T09:00:56.266Z,7.00
2019-01-16T09:03:58.232Z,7.10
2019-01-16T09:06:58.817Z,7.10
2019-01-16T09:09:59.496Z,7.10
2019-01-16T09:13:00.670Z,7.10
2019-01-16T09:15:54.699Z,7.10
2019-01-16T09:18:53.913Z,7.10
2019-01-16T09:21:58.217Z,7.10
2019-01-16T09:24:59.037Z,7.10
2019-01-16T09:27:59.859Z,7.10
2019-01-16T09:30:55.752Z,7.00
2019-01-16T09:33:56.187Z,7.00
2019-01-16T09:36:53.845Z,7.00
2019-01-16T09:39:48.037Z,7.10
2019-01-16T09:42:49.135Z,7.10
2019-01-16T09:45:50.252Z,7.10
2019-01-16T09:48:42.821Z,7.10
2019-01-16T09:51:36.871Z,7.10
2019-01-16T09:54:37.150Z,7.10
2019-01-16T09:57:26.467Z,7.10
2019-01-16T10:00:15.592Z,7.10
2019-01-16T10:03:04.603Z,7.00
2019-01-16T10:06:12.756Z,7.10
2019-01-16T10:09:01.801Z,7.10
2019-01-16T10:12:11.532Z,7.10
2019-01-16T10:15:00.571Z,7.10
2019-01-16T10:18:08.702Z,7.10
2019-01-16T10:21:00.283Z,7.10
2019-01-16T10:24:11.478Z,7.10
2019-01-16T10:27:12.606Z,7.10
2019-01-16T10:30:13.349Z,7.20
2019-01-16T10:33:14.322Z,7.10
2019-01-16T10:36:15.064Z,7.10
2019-01-16T10:39:16.005Z,7.10
2019-01-16T10:42:22.690Z,7.10
2019-01-16T10:45:10.378Z,7.00
2019-01-16T10:48:12.698Z,7.10
2019-01-16T10:51:06.483Z,7.20
2019-01-16T10:54:07.542Z,7.10
2019-01-16T10:57:08.587Z,7.20
2019-01-16T10:59:57.275Z,7.20
2019-01-16T11:02:58.111Z,7.20
2019-01-16T11:05:58.929Z,7.20
2019-01-16T11:08:56.512Z,7.30
2019-01-16T11:11:54.134Z,7.30
2019-01-16T11:17:56.736Z,7.30
2019-01-16T11:20:47.395Z,7.30
2019-01-16T11:23:47.738Z,7.20
2019-01-16T11:26:51.639Z,7.20
2019-01-16T11:29:45.127Z,7.20
2019-01-16T11:32:46.163Z,7.30
2019-01-16T11:35:35.239Z,7.20
2019-01-16T11:38:43.359Z,7.20
2019-01-16T11:41:44.217Z,7.10
2019-01-16T11:44:51.075Z,7.10
2019-01-16T11:47:51.751Z,7.20
2019-01-16T11:50:44.151Z,7.20
2019-01-16T11:53:37.968Z,7.10
2019-01-16T11:56:39.001Z,7.20
2019-01-16T11:59:29.155Z,7.30
2019-01-16T12:02:38.676Z,7.20
2019-01-16T12:05:45.706Z,7.20
2019-01-16T12:08:39.238Z,7.10
2019-01-16T12:11:42.819Z,7.20
2019-01-16T12:14:43.537Z,7.10
2019-01-16T12:17:39.926Z,7.10
2019-01-16T12:20:28.659Z,7.00
2019-01-16T12:23:29.198Z,7.00
2019-01-16T12:26:23.190Z,7.00
2019-01-16T12:29:27.120Z,7.10
2019-01-16T12:32:27.811Z,7.10
2019-01-16T12:35:28.518Z,7.00
2019-01-16T12:38:26.518Z,6.90
2019-01-16T12:41:27.870Z,6.90
2019-01-16T12:44:28.539Z,6.90
2019-01-16T12:47:29.421Z,6.90
2019-01-16T12:50:30.377Z,6.90
2019-01-16T12:56:52.480Z,7.00
2019-01-16T12:59:52.801Z,7.00
2019-01-16T13:02:54.162Z,6.90
2019-01-16T13:05:57.867Z,6.80
2019-01-16T13:12:00.898Z,6.80
2019-01-16T13:15:02.019Z,6.90
2019-01-16T13:17:51.118Z,6.90
2019-01-16T13:20:59.263Z,6.90
2019-01-16T13:24:00.086Z,6.90
2019-01-16T13:27:02.067Z,6.90
2019-01-16T13:30:02.994Z,6.90
2019-01-16T13:33:03.537Z,6.90
2019-01-16T13:36:07.401Z,6.90
2019-01-16T13:42:15.045Z,6.90
2019-01-16T13:45:16.110Z,6.80
2019-01-16T13:48:16.802Z,6.80
2019-01-16T13:51:23.249Z,6.90
2019-01-16T13:54:23.794Z,6.90
2019-01-16T13:57:24.255Z,6.80
2019-01-16T14:00:16.501Z,6.80
2019-01-16T14:03:17.136Z,6.80
2019-01-16T14:06:18.017Z,6.90
2019-01-16T14:09:19.176Z,7.00
2019-01-16T14:12:19.841Z,7.00
2019-01-16T14:15:20.672Z,7.00
2019-01-16T14:18:21.446Z,6.90
2019-01-16T14:21:18.003Z,6.90
2019-01-16T14:24:22.090Z,6.90
2019-01-16T14:27:28.760Z,6.90
2019-01-16T14:30:35.427Z,6.90
2019-01-16T14:33:35.769Z,6.90
2019-01-16T14:36:36.760Z,7.00
2019-01-16T14:39:38.054Z,6.90
2019-01-16T14:42:38.402Z,6.90
2019-01-16T14:45:42.107Z,6.80
2019-01-16T14:48:43.152Z,6.80
2019-01-16T14:51:47.045Z,6.80
2019-01-16T14:54:47.889Z,6.80
2019-01-16T14:57:48.757Z,6.80
2019-01-16T15:00:49.915Z,6.80
2019-01-16T15:03:53.795Z,6.80
2019-01-16T15:06:54.741Z,6.70
2019-01-16T15:09:50.413Z,6.80
2019-01-16T15:12:51.415Z,6.80
2019-01-16T15:15:52.225Z,6.80
2019-01-16T15:18:50.334Z,6.70
2019-01-16T15:21:53.950Z,6.70
2019-01-16T15:24:40.686Z,6.70
2019-01-16T15:27:41.820Z,6.70
2019-01-16T15:30:38.755Z,6.70
2019-01-16T15:33:39.478Z,6.70
2019-01-16T15:36:28.554Z,6.70
2019-01-16T15:39:36.871Z,6.70
2019-01-16T15:42:43.586Z,6.70
2019-01-16T15:48:36.197Z,6.60
2019-01-16T15:51:26.428Z,6.60
2019-01-16T15:56:57.137Z,6.50
2019-01-16T15:59:33.453Z,6.50
2019-01-16T16:02:19.115Z,6.50
2019-01-16T16:05:11.183Z,6.50
2019-01-16T16:08:00.224Z,6.40
2019-01-16T16:10:49.464Z,6.50
2019-01-16T16:13:31.543Z,6.30
2019-01-16T16:16:38.369Z,6.30
2019-01-16T16:19:39.023Z,6.20
2019-01-16T16:22:40.003Z,6.20
2019-01-16T16:25:41.074Z,6.20
2019-01-16T16:28:44.868Z,6.20
2019-01-16T16:31:38.798Z,6.10
2019-01-16T16:34:39.858Z,6.10
2019-01-16T16:37:40.874Z,6.00
2019-01-16T16:40:44.695Z,6.00
2019-01-16T16:43:33.794Z,5.90
2019-01-16T16:46:22.840Z,5.90
2019-01-16T16:49:11.885Z,5.90
2019-01-16T16:51:54.536Z,5.90
2019-01-16T16:55:02.654Z,5.90
2019-01-16T16:58:03.637Z,5.90
2019-01-16T17:01:04.751Z,5.90
2019-01-16T17:04:05.879Z,6.00
2019-01-16T17:07:06.773Z,6.00
2019-01-16T17:09:48.201Z,6.00
2019-01-16T17:12:48.587Z,6.00
2019-01-16T17:15:49.712Z,6.00
2019-01-16T17:18:56.585Z,6.00
2019-01-16T17:21:45.629Z,6.00
2019-01-16T17:24:34.659Z,6.10
2019-01-16T17:27:24.470Z,6.00
2019-01-16T17:30:13.485Z,6.00
2019-01-16T17:32:56.296Z,5.90
2019-01-16T17:36:00.135Z,6.00
2019-01-16T17:39:00.970Z,6.10
2019-01-16T17:42:02.965Z,6.00
2019-01-16T17:45:06.361Z,6.00
2019-01-16T17:48:07.479Z,6.10
2019-01-16T17:51:08.311Z,6.10
2019-01-16T17:54:11.908Z,6.10
2019-01-16T17:57:12.865Z,6.10
2019-01-16T18:00:13.605Z,6.10
2019-01-16T18:03:17.403Z,6.10
2019-01-16T18:06:18.133Z,6.10
2019-01-16T18:12:15.562Z,6.10
2019-01-16T18:17:45.287Z,6.00
2019-01-16T18:20:34.497Z,6.10
2019-01-16T18:23:27.402Z,6.10
2019-01-16T18:26:20.617Z,6.10
2019-01-16T18:29:16.575Z,6.10
2019-01-16T18:32:17.469Z,6.10
2019-01-16T18:35:18.158Z,6.20
2019-01-16T18:38:25.117Z,6.10
2019-01-16T18:44:25.369Z,6.10
2019-01-16T18:47:26.324Z,6.20
2019-01-16T18:50:28.303Z,6.20
2019-01-16T18:53:29.333Z,6.20
2019-01-16T18:56:35.821Z,6.20
2019-01-16T18:59:33.920Z,6.20
2019-01-16T19:02:37.814Z,6.20
2019-01-16T19:05:37.447Z,6.20
2019-01-16T19:08:37.881Z,6.20
2019-01-16T19:11:41.566Z,6.20
2019-01-16T19:14:42.609Z,6.30
2019-01-16T19:17:46.331Z,6.30
2019-01-16T19:20:47.518Z,6.30
2019-01-16T19:23:47.180Z,6.30
2019-01-16T19:26:47.589Z,6.40
2019-01-16T19:29:48.506Z,6.40
2019-01-16T19:32:49.201Z,6.40
2019-01-16T19:35:50.140Z,6.40
2019-01-16T19:38:42.907Z,6.40
2019-01-16T19:41:47.126Z,6.40
2019-01-16T19:47:52.136Z,6.40
2019-01-16T19:50:52.708Z,6.40
2019-01-16T19:53:53.446Z,6.30
2019-01-16T19:56:45.662Z,6.30
2019-01-16T19:59:40.747Z,6.30
2019-01-16T20:02:29.964Z,6.30
2019-01-16T20:05:41.080Z,6.30
2019-01-16T20:08:48.032Z,6.30
2019-01-16T20:11:56.257Z,6.30
2019-01-16T20:14:48.678Z,6.30
2019-01-16T20:17:37.740Z,6.30
2019-01-16T20:20:20.254Z,6.30
2019-01-16T20:23:11.161Z,6.40
2019-01-16T20:26:00.099Z,6.40
2019-01-16T20:28:55.078Z,6.30
2019-01-16T20:31:44.384Z,6.30
2019-01-16T20:34:52.900Z,6.40
2019-01-16T20:37:42.447Z,6.30
2019-01-16T20:40:50.573Z,6.30
2019-01-16T20:43:51.409Z,6.20
2019-01-16T20:46:52.101Z,6.20
2019-01-16T20:49:54.685Z,6.20
2019-01-16T20:52:55.064Z,6.20
2019-01-16T20:55:56.015Z,6.20
2019-01-16T20:59:03.202Z,6.30
2019-01-16T21:01:44.759Z,6.30
2019-01-16T21:04:53.250Z,6.30
2019-01-16T21:07:48.766Z,6.30
2019-01-16T21:10:49.496Z,6.30
2019-01-16T21:13:50.542Z,6.30
2019-01-16T21:16:51.479Z,6.30
2019-01-16T21:19:58.123Z,6.30
2019-01-16T21:22:59.066Z,6.30
2019-01-16T21:26:00.056Z,6.30
2019-01-16T21:28:49.047Z,6.30
2019-01-16T21:31:53.216Z,6.30
2019-01-16T21:34:49.080Z,6.20
2019-01-16T21:37:37.583Z,6.30
2019-01-16T21:40:40.451Z,6.20
2019-01-16T21:43:41.766Z,6.20
2019-01-16T21:46:42.476Z,6.20
2019-01-16T21:50:02.076Z,6.30
2019-01-16T21:53:30.366Z,6.30
2019-01-16T21:56:28.374Z,6.20
2019-01-16T21:59:29.076Z,6.20
2019-01-16T22:02:30.834Z,6.30
2019-01-16T22:05:31.453Z,6.30
2019-01-16T22:08:34.871Z,6.30
2019-01-16T22:11:35.924Z,6.30
2019-01-16T22:14:36.889Z,6.30
2019-01-16T22:17:40.776Z,6.40
2019-01-16T22:20:31.050Z,6.40
2019-01-16T22:23:45.380Z,6.40
2019-01-16T22:26:46.205Z,6.50
2019-01-16T22:29:53.323Z,6.50
2019-01-16T22:33:00.474Z,6.50
2019-01-16T22:36:01.244Z,6.50
2019-01-16T22:39:05.419Z,6.50
2019-01-16T22:42:05.811Z,6.60
2019-01-16T22:45:07.873Z,6.60
2019-01-16T22:48:06.506Z,6.60
2019-01-16T22:51:07.804Z,6.60
2019-01-16T22:54:08.634Z,6.60
2019-01-16T22:57:12.730Z,6.60
2019-01-16T23:02:58.348Z,6.50
2019-01-16T23:06:06.588Z,6.60
2019-01-16T23:09:07.341Z,6.60
2019-01-16T23:12:03.189Z,6.50
2019-01-16T23:15:04.539Z,6.30
2019-01-16T23:18:05.487Z,6.20
2019-01-16T23:21:09.166Z,6.10
2019-01-16T23:23:58.524Z,6.00
2019-01-16T23:27:06.726Z,6.00
2019-01-16T23:30:05.493Z,5.90
2019-01-16T23:32:54.581Z,5.90
2019-01-16T23:36:02.736Z,5.80
2019-01-16T23:38:52.046Z,5.80
2019-01-16T23:41:45.155Z,5.80
2019-01-16T23:44:34.233Z,5.70
2019-01-16T23:47:42.557Z,5.80
2019-01-16T23:50:43.731Z,5.80
2019-01-16T23:53:33.586Z,5.80
2019-01-16T23:56:34.171Z,5.80
2019-01-16T23:59:36.073Z,5.90
